createdAt,value
2019-05-01T00:00:45.367Z,11.20
2019-05-01T00:03:18.309Z,11.33
2019-05-01T00:08:44.570Z,11.77
2019-05-01T00:11:13.007Z,11.17
2019-05-01T00:13:41.518Z,11.23
2019-05-01T00:16:09.964Z,10.33
2019-05-01T00:18:38.426Z,11.50
2019-05-01T00:21:06.868Z,10.70
2019-05-01T00:23:35.307Z,9.37
2019-05-01T00:26:03.731Z,10.23
2019-05-01T00:28:32.163Z,9.57
2019-05-01T00:31:00.646Z,9.73
2019-05-01T00:33:29.997Z,9.30
2019-05-01T00:35:58.432Z,9.90
2019-05-01T00:38:26.878Z,10.33
2019-05-01T00:40:55.303Z,10.03
2019-05-01T00:43:23.761Z,10.53
2019-05-01T00:45:52.182Z,10.10
2019-05-01T00:48:20.623Z,11.57
2019-05-01T00:50:49.045Z,10.83
2019-05-01T00:53:17.498Z,11.23
2019-05-01T00:55:50.646Z,10.90
2019-05-01T00:58:23.409Z,10.50
2019-05-01T01:01:10.323Z,11.50
2019-05-01T01:03:40.105Z,10.77
2019-05-01T01:06:08.686Z,11.53
2019-05-01T01:08:37.158Z,11.43
2019-05-01T01:11:05.589Z,12.47
2019-05-01T01:13:34.109Z,10.73
2019-05-01T01:16:02.532Z,12.17
2019-05-01T01:18:30.983Z,12.13
2019-05-01T01:20:59.419Z,12.07
2019-05-01T01:23:27.847Z,12.83
2019-05-01T01:25:56.340Z,13.50
2019-05-01T01:28:24.763Z,13.80
2019-05-01T01:30:56.474Z,13.43
2019-05-01T01:33:23.360Z,13.00
2019-05-01T01:35:51.793Z,12.27
2019-05-01T01:38:20.226Z,12.80
2019-05-01T01:40:48.718Z,14.33
2019-05-01T01:43:34.374Z,15.10
2019-05-01T01:46:21.802Z,16.40
2019-05-01T01:48:50.231Z,15.83
2019-05-01T01:51:19.311Z,16.40
2019-05-01T01:53:48.106Z,16.10
2019-05-01T01:56:16.773Z,15.77
2019-05-01T01:58:45.434Z,16.90
2019-05-01T02:01:15.496Z,16.37
2019-05-01T02:03:45.588Z,15.80
2019-05-01T02:06:14.329Z,16.03
2019-05-01T02:08:43.655Z,16.87
2019-05-01T02:11:13.111Z,17.23
2019-05-01T02:13:41.607Z,17.13
2019-05-01T02:16:10.131Z,17.80
2019-05-01T02:18:38.615Z,16.13
2019-05-01T02:21:07.050Z,17.03
2019-05-01T02:23:35.554Z,16.87
2019-05-01T02:26:04.343Z,17.17
2019-05-01T02:28:34.578Z,15.97
2019-05-01T02:31:27.524Z,15.50
2019-05-01T02:33:48.324Z,17.80
2019-05-01T02:36:18.884Z,18.47
2019-05-01T02:38:49.607Z,17.10
2019-05-01T02:41:20.414Z,17.77
2019-05-01T02:43:51.750Z,16.77
2019-05-01T02:46:22.611Z,17.93
2019-05-01T02:49:06.361Z,16.27
2019-05-01T02:51:36.485Z,16.27
2019-05-01T02:54:05.367Z,16.87
2019-05-01T02:56:43.419Z,17.33
2019-05-01T02:59:12.893Z,17.10
2019-05-01T03:01:46.951Z,16.43
2019-05-01T03:04:12.027Z,17.07
2019-05-01T03:06:40.789Z,16.27
2019-05-01T03:09:09.203Z,16.83
2019-05-01T03:11:39.904Z,15.07
2019-05-01T03:14:11.407Z,16.10
2019-05-01T03:16:40.693Z,15.70
2019-05-01T03:19:22.334Z,16.23
2019-05-01T03:21:58.123Z,15.90
2019-05-01T03:24:28.305Z,13.07
2019-05-01T03:26:57.631Z,14.93
2019-05-01T03:29:26.241Z,16.40
2019-05-01T03:32:15.587Z,16.77
2019-05-01T03:34:24.832Z,16.23
2019-05-01T03:36:53.471Z,16.23
2019-05-01T03:39:22.053Z,16.57
2019-05-01T03:41:50.555Z,16.03
2019-05-01T03:44:19.735Z,16.50
2019-05-01T03:46:48.941Z,16.80
2019-05-01T03:49:17.937Z,15.33
2019-05-01T03:51:46.472Z,17.23
2019-05-01T03:54:14.958Z,16.37
2019-05-01T03:56:43.473Z,15.63
2019-05-01T03:59:11.900Z,17.67
2019-05-01T04:01:45.488Z,16.90
2019-05-01T04:04:15.836Z,16.70
2019-05-01T04:06:44.439Z,18.20
2019-05-01T04:09:13.041Z,20.40
2019-05-01T04:11:41.642Z,20.57
2019-05-01T04:14:10.198Z,20.33
2019-05-01T04:16:39.909Z,22.27
2019-05-01T04:19:08.482Z,21.60
2019-05-01T04:21:45.116Z,21.13
2019-05-01T04:24:14.164Z,21.93
2019-05-01T04:26:42.612Z,22.73
2019-05-01T04:29:16.157Z,40.60
2019-05-01T04:31:49.229Z,30.90
2019-05-01T04:34:28.497Z,22.37
2019-05-01T04:36:58.688Z,23.27
2019-05-01T04:39:27.512Z,23.33
2019-05-01T04:41:56.237Z,24.23
2019-05-01T04:44:24.740Z,22.97
2019-05-01T04:46:53.854Z,21.03
2019-05-01T04:49:22.931Z,22.20
2019-05-01T04:51:51.417Z,21.10
2019-05-01T04:54:20.512Z,21.10
2019-05-01T04:56:48.919Z,21.63
2019-05-01T04:59:17.436Z,21.77
2019-05-01T05:01:59.687Z,20.53
2019-05-01T05:04:29.269Z,20.80
2019-05-01T05:06:57.770Z,22.10
2019-05-01T05:09:42.621Z,20.67
2019-05-01T05:12:13.036Z,19.70
2019-05-01T05:15:01.351Z,23.67
2019-05-01T05:17:29.858Z,21.37
2019-05-01T05:19:58.586Z,20.67
2019-05-01T05:22:27.145Z,19.73
2019-05-01T05:24:55.582Z,18.67
2019-05-01T05:27:25.151Z,18.13
2019-05-01T05:29:57.088Z,18.60
2019-05-01T05:32:27.422Z,20.30
2019-05-01T05:34:59.163Z,19.47
2019-05-01T05:37:31.592Z,17.17
2019-05-01T05:40:02.013Z,16.20
2019-05-01T05:42:31.113Z,15.50
2019-05-01T05:44:59.643Z,13.03
2019-05-01T05:47:28.090Z,12.50
2019-05-01T05:49:56.771Z,11.73
2019-05-01T05:52:28.574Z,11.77
2019-05-01T05:55:07.700Z,11.57
2019-05-01T05:57:39.300Z,11.17
2019-05-01T06:00:09.813Z,10.87
2019-05-01T06:02:58.789Z,11.80
2019-05-01T06:05:34.995Z,10.27
2019-05-01T06:08:12.576Z,11.00
2019-05-01T06:10:44.486Z,10.23
2019-05-01T06:13:21.841Z,10.10
2019-05-01T06:15:55.222Z,10.60
2019-05-01T06:18:25.932Z,13.27
2019-05-01T06:21:03.799Z,11.60
2019-05-01T06:23:44.856Z,11.70
2019-05-01T06:26:27.211Z,11.73
2019-05-01T06:29:00.856Z,10.93
2019-05-01T06:31:27.180Z,12.03
2019-05-01T06:33:55.751Z,11.00
2019-05-01T06:36:24.384Z,11.37
2019-05-01T06:38:53.713Z,11.50
2019-05-01T06:41:22.903Z,11.83
2019-05-01T06:43:57.025Z,12.97
2019-05-01T06:46:29.086Z,12.80
2019-05-01T06:49:07.002Z,12.70
2019-05-01T06:51:41.620Z,11.23
2019-05-01T06:54:16.312Z,12.03
2019-05-01T06:56:45.564Z,11.93
2019-05-01T06:59:16.023Z,13.20
2019-05-01T07:01:45.500Z,12.80
2019-05-01T07:04:14.312Z,12.47
2019-05-01T07:06:43.200Z,13.40
2019-05-01T07:12:02.519Z,13.07
2019-05-01T07:14:31.312Z,13.23
2019-05-01T07:17:00.004Z,13.13
2019-05-01T07:19:46.587Z,13.00
2019-05-01T07:22:15.197Z,13.20
2019-05-01T07:24:43.664Z,13.80
2019-05-01T07:27:12.252Z,13.47
2019-05-01T07:29:44.883Z,15.00
2019-05-01T07:32:14.972Z,13.77
2019-05-01T07:34:42.820Z,14.17
2019-05-01T07:37:14.213Z,13.40
2019-05-01T07:40:02.123Z,12.97
2019-05-01T07:42:32.212Z,14.03
2019-05-01T07:45:07.914Z,13.97
2019-05-01T07:47:38.663Z,13.60
2019-05-01T07:50:12.213Z,14.10
2019-05-01T07:52:41.307Z,13.63
2019-05-01T07:55:12.983Z,13.00
2019-05-01T07:57:44.584Z,13.10
2019-05-01T08:00:15.272Z,13.57
2019-05-01T08:02:43.716Z,13.53
2019-05-01T08:05:12.199Z,12.27
2019-05-01T08:07:43.351Z,13.30
2019-05-01T08:10:12.460Z,13.00
2019-05-01T08:12:41.172Z,13.30
2019-05-01T08:15:10.047Z,13.30
2019-05-01T08:17:40.433Z,12.77
2019-05-01T08:20:19.677Z,12.73
2019-05-01T08:22:51.038Z,12.70
2019-05-01T08:25:19.567Z,11.53
2019-05-01T08:27:56.224Z,12.20
2019-05-01T08:30:24.333Z,11.70
2019-05-01T08:33:09.790Z,12.10
2019-05-01T08:35:36.478Z,12.73
2019-05-01T08:38:06.108Z,12.43
2019-05-01T08:40:37.195Z,11.13
2019-05-01T08:43:04.773Z,11.43
2019-05-01T08:46:11.868Z,11.33
2019-05-01T08:48:54.486Z,10.97
2019-05-01T08:51:22.999Z,11.50
2019-05-01T08:53:52.757Z,11.47
2019-05-01T08:56:23.365Z,10.30
2019-05-01T08:58:51.789Z,11.33
2019-05-01T09:01:20.523Z,11.07
2019-05-01T09:03:49.816Z,10.50
2019-05-01T09:06:19.126Z,9.77
2019-05-01T09:08:47.562Z,9.90
2019-05-01T09:11:15.988Z,9.47
2019-05-01T09:13:44.459Z,9.67
2019-05-01T09:16:12.923Z,8.97
2019-05-01T09:18:41.648Z,9.40
2019-05-01T09:21:10.610Z,9.03
2019-05-01T09:23:39.861Z,9.80
2019-05-01T09:26:14.822Z,9.40
2019-05-01T09:28:45.858Z,8.97
2019-05-01T09:31:15.904Z,8.33
2019-05-01T09:33:44.441Z,9.10
2019-05-01T09:36:12.857Z,8.97
2019-05-01T09:38:41.385Z,8.10
2019-05-01T09:41:12.547Z,8.60
2019-05-01T09:43:42.539Z,8.90
2019-05-01T09:46:12.586Z,8.40
2019-05-01T09:48:42.822Z,8.00
2019-05-01T09:51:28.253Z,8.23
2019-05-01T09:56:41.554Z,8.43
2019-05-01T09:59:12.608Z,7.83
2019-05-01T10:01:43.590Z,7.47
2019-05-01T10:04:12.078Z,7.73
2019-05-01T10:06:43.461Z,7.67
2019-05-01T10:09:16.654Z,7.50
2019-05-01T10:11:42.146Z,7.50
2019-05-01T10:14:31.611Z,7.80
2019-05-01T10:17:04.305Z,7.57
2019-05-01T10:19:32.933Z,7.50
2019-05-01T10:22:02.357Z,7.37
2019-05-01T10:31:48.145Z,7.63
2019-05-01T10:35:20.975Z,7.23
2019-05-01T10:37:49.314Z,7.53
2019-05-01T10:40:17.821Z,8.00
2019-05-01T10:45:42.074Z,8.07
2019-05-01T10:48:10.515Z,7.03
2019-05-01T10:50:39.152Z,7.63
2019-05-01T10:53:28.622Z,7.70
2019-05-01T10:55:57.092Z,7.93
2019-05-01T10:58:25.522Z,7.87
2019-05-01T11:00:58.358Z,7.17
2019-05-01T11:03:26.777Z,7.63
2019-05-01T11:05:56.302Z,6.73
2019-05-01T11:08:25.042Z,7.17
2019-05-01T11:10:53.567Z,6.57
2019-05-01T11:13:22.022Z,7.07
2019-05-01T11:15:50.482Z,7.37
2019-05-01T11:18:18.946Z,7.37
2019-05-01T11:20:47.423Z,6.63
2019-05-01T11:23:15.847Z,6.57
2019-05-01T11:25:44.724Z,7.13
2019-05-01T11:28:33.844Z,6.30
2019-05-01T11:31:02.270Z,6.00
2019-05-01T11:33:44.486Z,5.87
2019-05-01T11:36:30.770Z,6.30
2019-05-01T11:39:00.864Z,5.77
2019-05-01T11:41:39.879Z,5.60
2019-05-01T11:44:12.110Z,6.27
2019-05-01T11:46:39.862Z,5.70
2019-05-01T11:49:27.628Z,5.00
2019-05-01T11:51:56.068Z,5.73
2019-05-01T11:54:24.503Z,7.73
2019-05-01T11:56:52.968Z,5.73
2019-05-01T11:59:21.438Z,6.00
2019-05-01T12:01:50.013Z,12.23
2019-05-01T12:04:18.470Z,5.50
2019-05-01T12:06:46.922Z,5.10
2019-05-01T12:09:15.692Z,5.20
2019-05-01T12:11:45.787Z,4.90
2019-05-01T12:14:15.700Z,28.80
2019-05-01T12:16:48.936Z,5.80
2019-05-01T12:19:17.367Z,5.23
2019-05-01T12:21:45.896Z,4.80
2019-05-01T12:24:15.106Z,4.60
2019-05-01T12:26:43.584Z,4.90
2019-05-01T12:29:12.349Z,5.10
2019-05-01T12:31:41.280Z,4.77
2019-05-01T12:34:09.748Z,4.30
2019-05-01T12:36:39.698Z,3.17
2019-05-01T12:39:10.225Z,4.00
2019-05-01T12:41:43.273Z,4.83
2019-05-01T12:44:11.803Z,4.40
2019-05-01T12:46:50.589Z,4.73
2019-05-01T12:49:19.077Z,5.00
2019-05-01T12:51:49.150Z,4.97
2019-05-01T12:54:24.930Z,4.40
2019-05-01T12:57:03.143Z,3.87
2019-05-01T12:59:31.573Z,5.23
2019-05-01T13:01:59.993Z,4.80
2019-05-01T13:04:28.909Z,4.60
2019-05-01T13:06:59.020Z,4.70
2019-05-01T13:09:27.497Z,4.57
2019-05-01T13:11:55.932Z,7.47
2019-05-01T13:14:24.369Z,5.43
2019-05-01T13:16:52.828Z,4.90
2019-05-01T13:19:21.286Z,4.40
2019-05-01T13:21:49.724Z,4.90
2019-05-01T13:24:18.199Z,4.70
2019-05-01T13:27:06.205Z,4.57
2019-05-01T13:29:36.292Z,4.10
2019-05-01T13:32:15.453Z,4.60
2019-05-01T13:34:43.888Z,4.77
2019-05-01T13:37:12.415Z,4.80
2019-05-01T13:39:41.239Z,4.30
2019-05-01T13:42:09.702Z,4.40
2019-05-01T13:44:38.144Z,4.43
2019-05-01T13:47:06.574Z,4.70
2019-05-01T13:49:54.375Z,4.23
2019-05-01T13:52:34.819Z,4.50
2019-05-01T13:55:22.605Z,4.20
2019-05-01T13:57:51.066Z,4.40
2019-05-01T14:00:22.018Z,4.53
2019-05-01T14:02:50.428Z,4.57
2019-05-01T14:05:19.344Z,4.17
2019-05-01T14:07:47.763Z,4.60
2019-05-01T14:10:16.264Z,4.23
2019-05-01T14:12:44.711Z,4.40
2019-05-01T14:15:13.324Z,4.43
2019-05-01T14:17:41.785Z,4.40
2019-05-01T14:20:16.013Z,4.10
2019-05-01T14:25:54.565Z,4.17
2019-05-01T14:28:22.997Z,4.30
2019-05-01T14:30:51.485Z,4.10
2019-05-01T14:33:20.103Z,4.13
2019-05-01T14:35:48.540Z,4.33
2019-05-01T14:38:16.976Z,3.70
2019-05-01T14:40:45.420Z,3.93
2019-05-01T14:43:13.850Z,4.13
2019-05-01T14:45:42.382Z,4.47
2019-05-01T14:48:10.855Z,4.10
2019-05-01T14:50:40.977Z,4.23
2019-05-01T14:53:11.040Z,4.50
2019-05-01T14:55:40.021Z,4.43
2019-05-01T14:58:10.042Z,4.60
2019-05-01T15:00:40.059Z,4.30
2019-05-01T15:03:09.567Z,5.17
2019-05-01T15:05:37.997Z,4.43
2019-05-01T15:08:06.627Z,5.43
2019-05-01T15:10:35.055Z,4.43
2019-05-01T15:13:05.172Z,4.07
2019-05-01T15:15:42.305Z,4.47
2019-05-01T15:18:12.394Z,4.00
2019-05-01T15:20:41.175Z,4.57
2019-05-01T15:23:10.118Z,29.60
2019-05-01T15:25:39.813Z,5.53
2019-05-01T15:28:08.252Z,7.67
2019-05-01T15:30:36.676Z,4.30
2019-05-01T15:33:05.139Z,4.53
2019-05-01T15:35:33.548Z,4.10
2019-05-01T15:38:02.030Z,4.43
2019-05-01T15:40:32.178Z,4.20
2019-05-01T15:43:18.691Z,4.20
2019-05-01T15:45:47.110Z,4.40
2019-05-01T15:48:15.541Z,4.20
2019-05-01T15:50:44.781Z,4.10
2019-05-01T15:53:13.368Z,3.90
2019-05-01T15:55:41.799Z,4.10
2019-05-01T15:58:10.742Z,4.33
2019-05-01T16:00:42.077Z,4.07
2019-05-01T16:03:13.074Z,4.30
2019-05-01T16:05:41.813Z,4.17
2019-05-01T16:08:10.255Z,4.03
2019-05-01T16:10:55.186Z,4.13
2019-05-01T16:13:23.617Z,3.70
2019-05-01T16:15:52.051Z,4.90
2019-05-01T16:18:20.488Z,3.80
2019-05-01T16:20:48.912Z,3.87
2019-05-01T16:23:17.345Z,4.33
2019-05-01T16:25:45.799Z,12.53
2019-05-01T16:28:14.260Z,5.20
2019-05-01T16:30:42.741Z,4.37
2019-05-01T16:33:14.104Z,4.10
2019-05-01T16:35:42.548Z,4.03
2019-05-01T16:38:22.654Z,4.33
2019-05-01T16:40:55.368Z,4.17
2019-05-01T16:43:23.793Z,4.17
2019-05-01T16:45:52.270Z,3.67
2019-05-01T16:48:20.697Z,5.93
2019-05-01T16:50:50.127Z,3.97
2019-05-01T16:53:18.587Z,3.50
2019-05-01T16:55:47.061Z,4.13
2019-05-01T16:58:16.138Z,3.80
2019-05-01T17:00:56.459Z,3.90
2019-05-01T17:03:26.554Z,4.13
2019-05-01T17:06:02.457Z,5.50
2019-05-01T17:08:36.428Z,4.10
2019-05-01T17:11:02.837Z,4.20
2019-05-01T17:13:31.448Z,3.80
2019-05-01T17:15:59.887Z,4.00
2019-05-01T17:18:28.422Z,3.83
2019-05-01T17:20:56.877Z,4.27
2019-05-01T17:23:25.303Z,4.20
2019-05-01T17:25:53.745Z,3.83
2019-05-01T17:28:22.166Z,3.97
2019-05-01T17:30:52.259Z,4.23
2019-05-01T17:33:22.099Z,3.97
2019-05-01T17:35:50.706Z,4.30
2019-05-01T17:38:19.134Z,3.70
2019-05-01T17:40:52.122Z,4.20
2019-05-01T17:43:17.779Z,4.40
2019-05-01T17:45:46.224Z,4.60
2019-05-01T17:48:14.644Z,4.73
2019-05-01T17:50:43.283Z,4.20
2019-05-01T17:53:12.135Z,4.30
2019-05-01T17:55:43.539Z,4.13
2019-05-01T17:58:12.016Z,4.10
2019-05-01T18:01:03.477Z,4.17
2019-05-01T18:04:06.205Z,4.67
2019-05-01T18:06:36.284Z,5.23
2019-05-01T18:09:08.021Z,3.90
2019-05-01T18:11:37.696Z,3.70
2019-05-01T18:14:06.308Z,4.70
2019-05-01T18:16:34.744Z,4.20
2019-05-01T18:19:03.205Z,4.53
2019-05-01T18:21:31.778Z,4.77
2019-05-01T18:24:10.611Z,4.07
2019-05-01T18:26:46.708Z,4.50
2019-05-01T18:29:22.248Z,4.63
2019-05-01T18:31:50.771Z,4.27
2019-05-01T18:34:19.290Z,4.30
2019-05-01T18:37:01.633Z,3.83
2019-05-01T18:39:31.722Z,4.67
2019-05-01T18:42:02.046Z,4.27
2019-05-01T18:44:31.471Z,3.87
2019-05-01T18:47:00.131Z,4.63
2019-05-01T18:49:28.674Z,4.20
2019-05-01T18:51:57.309Z,4.00
2019-05-01T18:54:25.799Z,4.50
2019-05-01T18:56:54.708Z,4.00
2019-05-01T18:59:24.167Z,4.27
2019-05-01T19:01:53.313Z,4.23
2019-05-01T19:04:23.494Z,4.30
2019-05-01T19:06:52.244Z,4.20
2019-05-01T19:09:29.950Z,4.43
2019-05-01T19:11:50.898Z,6.60
2019-05-01T19:14:23.605Z,4.70
2019-05-01T19:16:51.088Z,4.50
2019-05-01T19:19:19.523Z,4.20
2019-05-01T19:22:07.735Z,5.00
2019-05-01T19:24:37.898Z,4.33
2019-05-01T19:27:06.331Z,4.10
2019-05-01T19:29:34.778Z,4.10
2019-05-01T19:32:03.233Z,4.13
2019-05-01T19:34:31.707Z,4.40
2019-05-01T19:37:00.200Z,4.00
2019-05-01T19:39:28.663Z,4.67
2019-05-01T19:41:57.076Z,4.47
2019-05-01T19:44:25.579Z,4.30
2019-05-01T19:46:54.122Z,4.53
2019-05-01T19:49:24.683Z,4.57
2019-05-01T19:51:55.541Z,5.10
2019-05-01T19:54:27.918Z,4.77
2019-05-01T19:56:53.719Z,4.10
2019-05-01T19:59:22.332Z,5.00
2019-05-01T20:01:53.790Z,4.20
2019-05-01T20:04:22.342Z,4.80
2019-05-01T20:06:50.788Z,4.67
2019-05-01T20:09:19.220Z,4.73
2019-05-01T20:11:47.706Z,5.00
2019-05-01T20:14:16.237Z,5.17
2019-05-01T20:16:44.826Z,5.23
2019-05-01T20:19:13.283Z,4.63
2019-05-01T20:21:44.445Z,4.90
2019-05-01T20:24:12.938Z,5.00
2019-05-01T20:26:41.409Z,5.00
2019-05-01T20:29:10.548Z,5.60
2019-05-01T20:31:39.052Z,5.50
2019-05-01T20:34:07.514Z,5.07
2019-05-01T20:36:36.103Z,5.43
2019-05-01T20:39:07.330Z,5.77
2019-05-01T20:41:35.835Z,5.50
2019-05-01T20:44:04.865Z,5.43
2019-05-01T20:46:45.533Z,5.57
2019-05-01T20:49:13.979Z,5.63
2019-05-01T20:51:42.436Z,4.97
2019-05-01T20:54:11.104Z,6.07
2019-05-01T20:56:44.203Z,5.27
2019-05-01T20:59:12.699Z,5.43
2019-05-01T21:01:41.474Z,5.57
2019-05-01T21:04:28.092Z,5.63
2019-05-01T21:12:22.584Z,5.50
2019-05-01T21:14:51.199Z,5.63
2019-05-01T21:17:19.693Z,5.67
2019-05-01T21:19:48.182Z,5.43
2019-05-01T21:22:33.416Z,6.07
2019-05-01T21:25:02.045Z,5.70
2019-05-01T21:27:30.461Z,5.93
2019-05-01T21:29:58.898Z,6.30
2019-05-01T21:32:27.724Z,5.60
2019-05-01T21:34:59.221Z,5.77
2019-05-01T21:37:27.819Z,6.13
2019-05-01T21:39:56.575Z,6.40
2019-05-01T21:42:25.224Z,7.00
2019-05-01T21:44:53.951Z,7.10
2019-05-01T21:47:23.806Z,6.57
2019-05-01T21:49:52.972Z,8.33
2019-05-01T21:52:25.120Z,9.03
2019-05-01T21:54:55.355Z,7.33
2019-05-01T21:57:22.032Z,6.67
2019-05-01T21:59:50.462Z,7.40
2019-05-01T22:02:19.146Z,6.77
2019-05-01T22:04:47.577Z,7.10
2019-05-01T22:07:16.517Z,7.20
2019-05-01T22:09:45.691Z,6.67
2019-05-01T22:12:15.289Z,7.23
2019-05-01T22:14:45.596Z,7.30
2019-05-01T22:17:18.384Z,7.00
2019-05-01T22:19:47.097Z,7.03
2019-05-01T22:22:17.140Z,6.83
2019-05-01T22:24:53.000Z,7.07
2019-05-01T22:27:23.072Z,7.23
2019-05-01T22:30:05.729Z,7.17
2019-05-01T22:32:46.327Z,7.70
2019-05-01T22:38:08.366Z,6.67
2019-05-01T22:41:05.310Z,7.37
2019-05-01T22:43:24.143Z,6.90
2019-05-01T22:45:56.299Z,6.43
2019-05-01T22:48:23.776Z,7.27
2019-05-01T22:50:53.830Z,7.27
2019-05-01T22:53:41.797Z,7.23
2019-05-01T22:56:11.806Z,7.30
2019-05-01T22:58:41.840Z,7.33
2019-05-01T23:01:13.197Z,6.87
2019-05-01T23:03:55.801Z,6.53
2019-05-01T23:06:24.333Z,7.20
2019-05-01T23:08:52.763Z,7.00
2019-05-01T23:11:21.957Z,7.40
2019-05-01T23:13:50.471Z,7.10
2019-05-01T23:16:20.634Z,7.40
2019-05-01T23:19:01.206Z,7.73
2019-05-01T23:21:29.728Z,7.70
2019-05-01T23:24:01.850Z,7.83
2019-05-01T23:26:28.446Z,7.90
2019-05-01T23:28:56.955Z,7.43
2019-05-01T23:31:25.365Z,8.37
2019-05-01T23:33:53.812Z,8.17
2019-05-01T23:36:23.871Z,8.30
2019-05-01T23:38:52.480Z,7.47
2019-05-01T23:41:24.881Z,8.70
2019-05-01T23:43:51.185Z,8.57
2019-05-01T23:46:19.701Z,8.50
2019-05-01T23:48:48.143Z,7.83
2019-05-01T23:51:16.565Z,8.63
2019-05-01T23:53:48.199Z,8.50
2019-05-01T23:56:15.166Z,8.40
2019-05-01T23:58:43.636Z,8.17
